sensor_id;sensor_type;location;lat;lon;timestamp;P1;durP1;ratioP1;P2;durP2;ratioP2
4428;SDS011;2227;47.810;8.810;2023-04-24T03:47:55;863.88;;;792.80;;
4428;SDS011;2227;47.810;8.810;2023-04-24T03:50:22;845.03;;;775.00;;
4428;SDS011;2227;47.810;8.810;2023-04-24T03:52:49;853.50;;;781.63;;
4428;SDS011;2227;47.810;8.810;2023-04-24T03:55:16;833.40;;;762.92;;
4428;SDS011;2227;47.810;8.810;2023-04-24T03:57:42;845.92;;;774.83;;
4428;SDS011;2227;47.810;8.810;2023-04-24T04:00:09;837.13;;;766.72;;
4428;SDS011;2227;47.810;8.810;2023-04-24T04:02:37;832.00;;;761.45;;
4428;SDS011;2227;47.810;8.810;2023-04-24T04:05:03;829.40;;;758.63;;
4428;SDS011;2227;47.810;8.810;2023-04-24T04:07:31;835.75;;;764.33;;
4428;SDS011;2227;47.810;8.810;2023-04-24T04:09:57;820.53;;;749.30;;
4428;SDS011;2227;47.810;8.810;2023-04-24T04:12:24;825.13;;;754.33;;
4428;SDS011;2227;47.810;8.810;2023-04-24T04:14:51;822.30;;;751.40;;
4428;SDS011;2227;47.810;8.810;2023-04-24T04:17:18;832.42;;;761.90;;
4428;SDS011;2227;47.810;8.810;2023-04-24T04:19:44;827.00;;;756.30;;
4428;SDS011;2227;47.810;8.810;2023-04-24T04:22:11;828.33;;;757.92;;
4428;SDS011;2227;47.810;8.810;2023-04-24T04:24:37;824.63;;;753.90;;
4428;SDS011;2227;47.810;8.810;2023-04-24T04:27:06;831.13;;;761.17;;
4428;SDS011;2227;47.810;8.810;2023-04-24T04:29:34;821.92;;;751.47;;
4428;SDS011;2227;47.810;8.810;2023-04-24T04:32:01;822.90;;;752.28;;
4428;SDS011;2227;47.810;8.810;2023-04-24T04:34:29;819.47;;;749.78;;
4428;SDS011;2227;47.810;8.810;2023-04-24T04:36:55;825.92;;;754.78;;
4428;SDS011;2227;47.810;8.810;2023-04-24T04:39:25;824.20;;;753.45;;
4428;SDS011;2227;47.810;8.810;2023-04-24T04:41:54;826.33;;;755.42;;
4428;SDS011;2227;47.810;8.810;2023-04-24T04:44:20;824.20;;;753.10;;
4428;SDS011;2227;47.810;8.810;2023-04-24T04:46:47;822.15;;;751.08;;
4428;SDS011;2227;47.810;8.810;2023-04-24T04:49:14;815.88;;;743.83;;
4428;SDS011;2227;47.810;8.810;2023-04-24T04:51:42;823.67;;;752.25;;
4428;SDS011;2227;47.810;8.810;2023-04-24T04:54:09;816.40;;;745.50;;
4428;SDS011;2227;47.810;8.810;2023-04-24T04:56:36;824.10;;;753.20;;
4428;SDS011;2227;47.810;8.810;2023-04-24T04:59:02;816.33;;;745.93;;
4428;SDS011;2227;47.810;8.810;2023-04-24T05:01:29;816.55;;;746.20;;
4428;SDS011;2227;47.810;8.810;2023-04-24T05:03:56;820.88;;;750.38;;
4428;SDS011;2227;47.810;8.810;2023-04-24T05:06:23;822.22;;;751.78;;
4428;SDS011;2227;47.810;8.810;2023-04-24T05:08:50;829.38;;;759.38;;
4428;SDS011;2227;47.810;8.810;2023-04-24T05:11:17;826.05;;;755.45;;
4428;SDS011;2227;47.810;8.810;2023-04-24T05:13:43;820.23;;;749.77;;
4428;SDS011;2227;47.810;8.810;2023-04-24T05:16:10;823.17;;;752.10;;
4428;SDS011;2227;47.810;8.810;2023-04-24T05:18:37;825.30;;;754.47;;
4428;SDS011;2227;47.810;8.810;2023-04-24T05:21:04;827.70;;;756.95;;
4428;SDS011;2227;47.810;8.810;2023-04-24T05:23:30;827.37;;;755.57;;
4428;SDS011;2227;47.810;8.810;2023-04-24T05:25:57;828.05;;;756.75;;
4428;SDS011;2227;47.810;8.810;2023-04-24T05:28:24;822.78;;;751.10;;
4428;SDS011;2227;47.810;8.810;2023-04-24T05:30:54;822.75;;;751.42;;
4428;SDS011;2227;47.810;8.810;2023-04-24T05:33:22;825.88;;;754.65;;
4428;SDS011;2227;47.810;8.810;2023-04-24T05:35:49;820.03;;;748.92;;
4428;SDS011;2227;47.810;8.810;2023-04-24T05:38:15;828.33;;;757.37;;
4428;SDS011;2227;47.810;8.810;2023-04-24T05:40:45;821.05;;;750.45;;
4428;SDS011;2227;47.810;8.810;2023-04-24T05:43:12;829.65;;;758.30;;
4428;SDS011;2227;47.810;8.810;2023-04-24T05:45:39;822.42;;;751.22;;
4428;SDS011;2227;47.810;8.810;2023-04-24T05:48:06;833.75;;;762.35;;
4428;SDS011;2227;47.810;8.810;2023-04-24T05:50:33;829.30;;;757.80;;
4428;SDS011;2227;47.810;8.810;2023-04-24T05:53:02;845.90;;;773.50;;
4428;SDS011;2227;47.810;8.810;2023-04-24T05:55:30;840.88;;;769.15;;
4428;SDS011;2227;47.810;8.810;2023-04-24T05:57:57;832.22;;;760.28;;
4428;SDS011;2227;47.810;8.810;2023-04-24T06:00:24;825.28;;;753.92;;
4428;SDS011;2227;47.810;8.810;2023-04-24T06:02:51;837.08;;;765.03;;
4428;SDS011;2227;47.810;8.810;2023-04-24T06:05:19;834.63;;;763.53;;
4428;SDS011;2227;47.810;8.810;2023-04-24T06:07:46;842.40;;;770.60;;
4428;SDS011;2227;47.810;8.810;2023-04-24T06:10:14;830.15;;;758.55;;
4428;SDS011;2227;47.810;8.810;2023-04-24T06:12:40;844.50;;;772.50;;
4428;SDS011;2227;47.810;8.810;2023-04-24T06:15:07;839.53;;;768.42;;
4428;SDS011;2227;47.810;8.810;2023-04-24T06:17:34;838.05;;;766.47;;
4428;SDS011;2227;47.810;8.810;2023-04-24T06:20:01;849.20;;;777.10;;
4428;SDS011;2227;47.810;8.810;2023-04-24T06:22:31;847.10;;;775.42;;
4428;SDS011;2227;47.810;8.810;2023-04-24T06:24:59;842.15;;;770.45;;
4428;SDS011;2227;47.810;8.810;2023-04-24T06:27:26;845.20;;;772.90;;
4428;SDS011;2227;47.810;8.810;2023-04-24T06:29:53;858.75;;;787.15;;
4428;SDS011;2227;47.810;8.810;2023-04-24T06:32:22;865.97;;;793.97;;
4428;SDS011;2227;47.810;8.810;2023-04-24T06:34:50;868.22;;;797.05;;
4428;SDS011;2227;47.810;8.810;2023-04-24T06:37:18;861.50;;;789.83;;
4428;SDS011;2227;47.810;8.810;2023-04-24T06:39:46;863.83;;;791.28;;
4428;SDS011;2227;47.810;8.810;2023-04-24T06:42:13;862.85;;;790.45;;
4428;SDS011;2227;47.810;8.810;2023-04-24T06:44:40;863.30;;;789.50;;
4428;SDS011;2227;47.810;8.810;2023-04-24T06:47:07;862.92;;;789.83;;
4428;SDS011;2227;47.810;8.810;2023-04-24T06:49:39;874.47;;;801.00;;
4428;SDS011;2227;47.810;8.810;2023-04-24T06:52:06;877.63;;;803.80;;
4428;SDS011;2227;47.810;8.810;2023-04-24T06:54:33;874.92;;;800.85;;
4428;SDS011;2227;47.810;8.810;2023-04-24T06:57:00;886.70;;;812.20;;
4428;SDS011;2227;47.810;8.810;2023-04-24T06:59:28;883.03;;;809.53;;
4428;SDS011;2227;47.810;8.810;2023-04-24T07:01:56;893.03;;;819.47;;
4428;SDS011;2227;47.810;8.810;2023-04-24T07:04:23;890.60;;;817.33;;
4428;SDS011;2227;47.810;8.810;2023-04-24T07:06:51;895.60;;;822.60;;
4428;SDS011;2227;47.810;8.810;2023-04-24T07:09:22;893.50;;;820.20;;
4428;SDS011;2227;47.810;8.810;2023-04-24T07:11:49;887.20;;;815.00;;
4428;SDS011;2227;47.810;8.810;2023-04-24T07:14:17;899.30;;;827.17;;
4428;SDS011;2227;47.810;8.810;2023-04-24T07:16:44;898.13;;;825.30;;
4428;SDS011;2227;47.810;8.810;2023-04-24T07:19:11;891.78;;;818.85;;
4428;SDS011;2227;47.810;8.810;2023-04-24T07:21:39;899.15;;;825.85;;
4428;SDS011;2227;47.810;8.810;2023-04-24T07:24:06;901.00;;;827.72;;
4428;SDS011;2227;47.810;8.810;2023-04-24T07:26:36;903.22;;;830.10;;
4428;SDS011;2227;47.810;8.810;2023-04-24T07:29:03;902.90;;;829.60;;
4428;SDS011;2227;47.810;8.810;2023-04-24T07:31:30;913.90;;;840.00;;
4428;SDS011;2227;47.810;8.810;2023-04-24T07:33:56;910.50;;;838.00;;
4428;SDS011;2227;47.810;8.810;2023-04-24T07:36:24;912.97;;;838.78;;
4428;SDS011;2227;47.810;8.810;2023-04-24T07:38:52;915.72;;;840.97;;
4428;SDS011;2227;47.810;8.810;2023-04-24T07:41:19;891.27;;;817.50;;
4428;SDS011;2227;47.810;8.810;2023-04-24T07:43:49;902.40;;;827.90;;
4428;SDS011;2227;47.810;8.810;2023-04-24T07:46:16;893.42;;;819.50;;
4428;SDS011;2227;47.810;8.810;2023-04-24T07:48:43;888.38;;;815.08;;
4428;SDS011;2227;47.810;8.810;2023-04-24T07:51:10;886.07;;;812.77;;
4428;SDS011;2227;47.810;8.810;2023-04-24T07:53:39;877.95;;;803.47;;
4428;SDS011;2227;47.810;8.810;2023-04-24T07:56:06;874.60;;;800.35;;
4428;SDS011;2227;47.810;8.810;2023-04-24T07:58:33;871.50;;;798.17;;
4428;SDS011;2227;47.810;8.810;2023-04-24T08:01:00;873.63;;;800.42;;
4428;SDS011;2227;47.810;8.810;2023-04-24T08:03:27;882.42;;;809.13;;
4428;SDS011;2227;47.810;8.810;2023-04-24T08:05:54;879.97;;;807.53;;
4428;SDS011;2227;47.810;8.810;2023-04-24T08:08:21;880.93;;;808.23;;
4428;SDS011;2227;47.810;8.810;2023-04-24T08:10:49;890.42;;;817.50;;
4428;SDS011;2227;47.810;8.810;2023-04-24T08:13:16;899.50;;;826.13;;
4428;SDS011;2227;47.810;8.810;2023-04-24T08:15:42;892.88;;;821.10;;
4428;SDS011;2227;47.810;8.810;2023-04-24T08:18:09;909.15;;;837.25;;
4428;SDS011;2227;47.810;8.810;2023-04-24T08:20:38;910.03;;;836.92;;
4428;SDS011;2227;47.810;8.810;2023-04-24T08:23:05;911.10;;;838.33;;
4428;SDS011;2227;47.810;8.810;2023-04-24T08:25:31;914.70;;;842.40;;
4428;SDS011;2227;47.810;8.810;2023-04-24T08:27:58;920.05;;;847.40;;
4428;SDS011;2227;47.810;8.810;2023-04-24T08:30:25;915.80;;;844.55;;
4428;SDS011;2227;47.810;8.810;2023-04-24T08:32:52;918.00;;;845.25;;
4428;SDS011;2227;47.810;8.810;2023-04-24T08:35:18;917.08;;;844.45;;
4428;SDS011;2227;47.810;8.810;2023-04-24T08:37:45;908.10;;;836.07;;
4428;SDS011;2227;47.810;8.810;2023-04-24T08:40:12;913.10;;;841.57;;
4428;SDS011;2227;47.810;8.810;2023-04-24T08:42:43;921.27;;;849.27;;
4428;SDS011;2227;47.810;8.810;2023-04-24T08:45:11;914.63;;;843.90;;
4428;SDS011;2227;47.810;8.810;2023-04-24T08:47:39;929.25;;;856.45;;
4428;SDS011;2227;47.810;8.810;2023-04-24T08:50:07;918.20;;;845.90;;
4428;SDS011;2227;47.810;8.810;2023-04-24T08:52:34;923.70;;;851.60;;
4428;SDS011;2227;47.810;8.810;2023-04-24T08:55:02;956.90;;;884.95;;
4428;SDS011;2227;47.810;8.810;2023-04-24T08:57:28;979.67;;;908.75;;
4428;SDS011;2227;47.810;8.810;2023-04-24T08:59:57;980.65;;;910.40;;
4428;SDS011;2227;47.810;8.810;2023-04-24T09:02:24;993.75;;;923.40;;
4428;SDS011;2227;47.810;8.810;2023-04-24T09:04:52;1010.65;;;940.05;;
4428;SDS011;2227;47.810;8.810;2023-04-24T09:07:19;1011.38;;;939.03;;
4428;SDS011;2227;47.810;8.810;2023-04-24T09:09:50;1014.35;;;941.42;;
4428;SDS011;2227;47.810;8.810;2023-04-24T09:12:18;995.92;;;924.47;;
4428;SDS011;2227;47.810;8.810;2023-04-24T09:14:45;1010.88;;;939.60;;
4428;SDS011;2227;47.810;8.810;2023-04-24T09:17:12;1011.45;;;939.20;;
4428;SDS011;2227;47.810;8.810;2023-04-24T09:19:39;1003.45;;;930.40;;
4428;SDS011;2227;47.810;8.810;2023-04-24T09:22:07;987.88;;;914.55;;
4428;SDS011;2227;47.810;8.810;2023-04-24T09:24:35;975.92;;;903.03;;
4428;SDS011;2227;47.810;8.810;2023-04-24T09:27:02;964.97;;;892.60;;
4428;SDS011;2227;47.810;8.810;2023-04-24T09:29:29;968.95;;;895.85;;
4428;SDS011;2227;47.810;8.810;2023-04-24T09:31:56;964.40;;;891.35;;
4428;SDS011;2227;47.810;8.810;2023-04-24T09:34:23;972.38;;;900.20;;
4428;SDS011;2227;47.810;8.810;2023-04-24T09:36:53;981.38;;;909.88;;
4428;SDS011;2227;47.810;8.810;2023-04-24T09:39:21;998.88;;;927.70;;
4428;SDS011;2227;47.810;8.810;2023-04-24T09:41:51;1037.93;;;965.50;;
4428;SDS011;2227;47.810;8.810;2023-04-24T09:44:20;1053.72;;;981.88;;
4428;SDS011;2227;47.810;8.810;2023-04-24T09:46:49;1056.65;;;984.80;;
4428;SDS011;2227;47.810;8.810;2023-04-24T09:49:28;1062.63;;;990.00;;
4428;SDS011;2227;47.810;8.810;2023-04-24T09:52:03;1048.97;;;976.33;;
4428;SDS011;2227;47.810;8.810;2023-04-24T09:54:31;1029.13;;;956.23;;
4428;SDS011;2227;47.810;8.810;2023-04-24T09:56:58;1006.10;;;932.88;;
4428;SDS011;2227;47.810;8.810;2023-04-24T09:59:26;997.28;;;923.72;;
4428;SDS011;2227;47.810;8.810;2023-04-24T10:01:52;1001.35;;;927.75;;
4428;SDS011;2227;47.810;8.810;2023-04-24T10:04:20;1016.55;;;944.17;;
4428;SDS011;2227;47.810;8.810;2023-04-24T10:06:51;1042.38;;;970.47;;
4428;SDS011;2227;47.810;8.810;2023-04-24T10:09:20;1048.72;;;976.00;;
4428;SDS011;2227;47.810;8.810;2023-04-24T10:11:49;1050.10;;;977.40;;
4428;SDS011;2227;47.810;8.810;2023-04-24T10:14:18;1051.60;;;979.60;;
4428;SDS011;2227;47.810;8.810;2023-04-24T10:16:46;1048.13;;;975.78;;
4428;SDS011;2227;47.810;8.810;2023-04-24T10:19:14;1051.55;;;979.75;;
4428;SDS011;2227;47.810;8.810;2023-04-24T10:21:43;1052.90;;;981.70;;
4428;SDS011;2227;47.810;8.810;2023-04-24T10:24:13;1060.93;;;988.40;;
4428;SDS011;2227;47.810;8.810;2023-04-24T10:26:42;1041.35;;;969.55;;
4428;SDS011;2227;47.810;8.810;2023-04-24T10:29:13;1023.75;;;952.42;;
4428;SDS011;2227;47.810;8.810;2023-04-24T10:31:41;1029.73;;;958.47;;
4428;SDS011;2227;47.810;8.810;2023-04-24T10:34:11;1033.45;;;961.65;;
4428;SDS011;2227;47.810;8.810;2023-04-24T10:36:41;1040.18;;;969.03;;
4428;SDS011;2227;47.810;8.810;2023-04-24T10:39:12;1048.80;;;978.10;;
4428;SDS011;2227;47.810;8.810;2023-04-24T10:41:41;1059.97;;;988.28;;
4428;SDS011;2227;47.810;8.810;2023-04-24T10:44:11;1062.18;;;990.55;;
4428;SDS011;2227;47.810;8.810;2023-04-24T10:46:44;1070.80;;;998.65;;
4428;SDS011;2227;47.810;8.810;2023-04-24T10:49:12;1083.53;;;999.90;;
4428;SDS011;2227;47.810;8.810;2023-04-24T10:51:45;1068.07;;;996.78;;
4428;SDS011;2227;47.810;8.810;2023-04-24T10:54:27;1077.40;;;999.90;;
4428;SDS011;2227;47.810;8.810;2023-04-24T10:59:47;1056.72;;;984.53;;
4428;SDS011;2227;47.810;8.810;2023-04-24T11:02:16;1056.22;;;983.22;;
4428;SDS011;2227;47.810;8.810;2023-04-24T11:04:44;1046.63;;;974.83;;
4428;SDS011;2227;47.810;8.810;2023-04-24T11:07:11;1047.88;;;975.28;;
4428;SDS011;2227;47.810;8.810;2023-04-24T11:09:38;1045.40;;;973.13;;
4428;SDS011;2227;47.810;8.810;2023-04-24T11:12:09;1042.43;;;971.30;;
4428;SDS011;2227;47.810;8.810;2023-04-24T11:17:28;1051.50;;;981.38;;
4428;SDS011;2227;47.810;8.810;2023-04-24T11:20:00;1062.32;;;992.25;;
4428;SDS011;2227;47.810;8.810;2023-04-24T11:22:44;1071.40;;;999.90;;
4428;SDS011;2227;47.810;8.810;2023-04-24T11:25:11;1075.25;;;999.90;;
4428;SDS011;2227;47.810;8.810;2023-04-24T11:27:44;1078.63;;;999.90;;
4428;SDS011;2227;47.810;8.810;2023-04-24T11:30:17;1063.47;;;992.47;;
4428;SDS011;2227;47.810;8.810;2023-04-24T11:32:47;1058.13;;;986.45;;
4428;SDS011;2227;47.810;8.810;2023-04-24T11:35:16;1049.40;;;978.15;;
4428;SDS011;2227;47.810;8.810;2023-04-24T11:37:46;1041.47;;;970.77;;
4428;SDS011;2227;47.810;8.810;2023-04-24T11:40:21;1038.93;;;968.03;;
4428;SDS011;2227;47.810;8.810;2023-04-24T11:42:54;1038.60;;;967.30;;
4428;SDS011;2227;47.810;8.810;2023-04-24T11:45:26;1039.18;;;966.70;;
4428;SDS011;2227;47.810;8.810;2023-04-24T11:47:54;1031.25;;;962.17;;
4428;SDS011;2227;47.810;8.810;2023-04-24T11:50:22;1046.32;;;977.22;;
4428;SDS011;2227;47.810;8.810;2023-04-24T11:52:51;1063.20;;;994.22;;
4428;SDS011;2227;47.810;8.810;2023-04-24T11:57:46;1091.25;;;999.90;;
4428;SDS011;2227;47.810;8.810;2023-04-24T12:00:17;1091.65;;;999.90;;
4428;SDS011;2227;47.810;8.810;2023-04-24T12:02:49;1073.07;;;999.90;;
4428;SDS011;2227;47.810;8.810;2023-04-24T12:05:23;1061.80;;;991.40;;
4428;SDS011;2227;47.810;8.810;2023-04-24T12:07:53;1054.07;;;983.85;;
4428;SDS011;2227;47.810;8.810;2023-04-24T12:10:20;1046.50;;;976.70;;
4428;SDS011;2227;47.810;8.810;2023-04-24T12:12:51;1040.97;;;971.88;;
4428;SDS011;2227;47.810;8.810;2023-04-24T12:15:22;1044.38;;;974.95;;
4428;SDS011;2227;47.810;8.810;2023-04-24T12:17:50;1039.47;;;968.03;;
4428;SDS011;2227;47.810;8.810;2023-04-24T12:20:22;1018.22;;;947.78;;
4428;SDS011;2227;47.810;8.810;2023-04-24T12:22:54;1014.20;;;943.45;;
4428;SDS011;2227;47.810;8.810;2023-04-24T12:25:23;1011.42;;;940.72;;
4428;SDS011;2227;47.810;8.810;2023-04-24T12:27:53;1002.17;;;931.08;;
4428;SDS011;2227;47.810;8.810;2023-04-24T12:30:21;994.75;;;923.65;;
4428;SDS011;2227;47.810;8.810;2023-04-24T12:32:53;988.17;;;916.60;;
4428;SDS011;2227;47.810;8.810;2023-04-24T12:35:22;994.38;;;923.42;;
4428;SDS011;2227;47.810;8.810;2023-04-24T12:37:50;995.75;;;924.25;;
4428;SDS011;2227;47.810;8.810;2023-04-24T12:40:17;995.55;;;924.80;;
4428;SDS011;2227;47.810;8.810;2023-04-24T12:42:49;992.20;;;921.80;;
4428;SDS011;2227;47.810;8.810;2023-04-24T12:45:17;997.55;;;926.25;;
4428;SDS011;2227;47.810;8.810;2023-04-24T12:47:45;996.17;;;924.88;;
4428;SDS011;2227;47.810;8.810;2023-04-24T12:50:13;994.47;;;923.70;;
4428;SDS011;2227;47.810;8.810;2023-04-24T12:52:41;995.50;;;925.17;;
4428;SDS011;2227;47.810;8.810;2023-04-24T12:55:11;995.33;;;925.10;;
4428;SDS011;2227;47.810;8.810;2023-04-24T12:57:38;999.47;;;927.93;;
4428;SDS011;2227;47.810;8.810;2023-04-24T13:00:06;998.40;;;926.30;;
4428;SDS011;2227;47.810;8.810;2023-04-24T13:02:34;995.40;;;922.80;;
4428;SDS011;2227;47.810;8.810;2023-04-24T13:05:01;982.63;;;910.30;;
4428;SDS011;2227;47.810;8.810;2023-04-24T13:07:28;976.80;;;905.55;;
4428;SDS011;2227;47.810;8.810;2023-04-24T13:09:55;983.83;;;912.30;;
4428;SDS011;2227;47.810;8.810;2023-04-24T13:12:23;980.97;;;910.33;;
4428;SDS011;2227;47.810;8.810;2023-04-24T13:14:53;979.22;;;909.13;;
4428;SDS011;2227;47.810;8.810;2023-04-24T13:17:21;987.65;;;916.80;;
4428;SDS011;2227;47.810;8.810;2023-04-24T13:19:49;990.45;;;920.20;;
4428;SDS011;2227;47.810;8.810;2023-04-24T13:22:17;993.15;;;922.15;;
4428;SDS011;2227;47.810;8.810;2023-04-24T13:24:47;994.28;;;922.97;;
4428;SDS011;2227;47.810;8.810;2023-04-24T13:27:17;988.67;;;917.00;;
4428;SDS011;2227;47.810;8.810;2023-04-24T13:29:44;995.17;;;922.75;;
4428;SDS011;2227;47.810;8.810;2023-04-24T13:32:11;994.10;;;921.67;;
4428;SDS011;2227;47.810;8.810;2023-04-24T13:34:37;992.22;;;919.78;;
4428;SDS011;2227;47.810;8.810;2023-04-24T13:37:04;988.08;;;916.63;;
4428;SDS011;2227;47.810;8.810;2023-04-24T13:39:31;992.92;;;921.50;;
4428;SDS011;2227;47.810;8.810;2023-04-24T13:41:58;993.30;;;922.47;;
4428;SDS011;2227;47.810;8.810;2023-04-24T13:44:28;1003.35;;;931.10;;
4428;SDS011;2227;47.810;8.810;2023-04-24T13:46:55;988.33;;;917.15;;
4428;SDS011;2227;47.810;8.810;2023-04-24T13:49:23;1002.10;;;929.80;;
4428;SDS011;2227;47.810;8.810;2023-04-24T13:51:54;988.67;;;916.60;;
4428;SDS011;2227;47.810;8.810;2023-04-24T13:54:21;991.90;;;919.47;;
4428;SDS011;2227;47.810;8.810;2023-04-24T13:56:51;988.63;;;915.67;;
4428;SDS011;2227;47.810;8.810;2023-04-24T13:59:19;981.80;;;909.25;;
4428;SDS011;2227;47.810;8.810;2023-04-24T14:01:47;974.40;;;900.55;;
4428;SDS011;2227;47.810;8.810;2023-04-24T14:04:14;971.80;;;898.72;;
4428;SDS011;2227;47.810;8.810;2023-04-24T14:06:41;962.40;;;889.47;;
4428;SDS011;2227;47.810;8.810;2023-04-24T14:09:09;959.83;;;887.23;;
4428;SDS011;2227;47.810;8.810;2023-04-24T14:11:36;954.45;;;882.17;;
4428;SDS011;2227;47.810;8.810;2023-04-24T14:14:03;964.05;;;890.97;;
4428;SDS011;2227;47.810;8.810;2023-04-24T14:16:30;974.28;;;901.58;;
4428;SDS011;2227;47.810;8.810;2023-04-24T14:18:57;965.63;;;893.53;;
4428;SDS011;2227;47.810;8.810;2023-04-24T14:21:23;978.40;;;906.07;;
4428;SDS011;2227;47.810;8.810;2023-04-24T14:23:50;979.50;;;907.78;;
4428;SDS011;2227;47.810;8.810;2023-04-24T14:26:17;980.20;;;908.50;;
4428;SDS011;2227;47.810;8.810;2023-04-24T14:28:44;992.67;;;920.72;;
4428;SDS011;2227;47.810;8.810;2023-04-24T14:31:11;987.90;;;915.80;;
4428;SDS011;2227;47.810;8.810;2023-04-24T14:33:38;985.70;;;912.78;;
4428;SDS011;2227;47.810;8.810;2023-04-24T14:36:04;983.53;;;910.63;;
4428;SDS011;2227;47.810;8.810;2023-04-24T14:38:31;984.83;;;912.15;;
4428;SDS011;2227;47.810;8.810;2023-04-24T14:40:58;988.78;;;915.63;;
4428;SDS011;2227;47.810;8.810;2023-04-24T14:43:32;981.67;;;910.58;;
4428;SDS011;2227;47.810;8.810;2023-04-24T14:46:01;985.33;;;914.40;;
4428;SDS011;2227;47.810;8.810;2023-04-24T14:48:28;983.67;;;913.97;;
4428;SDS011;2227;47.810;8.810;2023-04-24T14:50:55;992.57;;;922.07;;
4428;SDS011;2227;47.810;8.810;2023-04-24T14:53:22;990.40;;;920.30;;
4428;SDS011;2227;47.810;8.810;2023-04-24T14:55:49;993.08;;;921.75;;
4428;SDS011;2227;47.810;8.810;2023-04-24T14:58:15;991.15;;;919.13;;
4428;SDS011;2227;47.810;8.810;2023-04-24T15:00:42;981.85;;;910.97;;
4428;SDS011;2227;47.810;8.810;2023-04-24T15:03:09;977.50;;;906.90;;
4428;SDS011;2227;47.810;8.810;2023-04-24T15:05:36;988.93;;;917.20;;
4428;SDS011;2227;47.810;8.810;2023-04-24T15:08:03;986.85;;;916.88;;
4428;SDS011;2227;47.810;8.810;2023-04-24T15:10:30;991.00;;;920.30;;
4428;SDS011;2227;47.810;8.810;2023-04-24T15:12:57;992.75;;;922.67;;
4428;SDS011;2227;47.810;8.810;2023-04-24T15:15:23;991.20;;;920.78;;
4428;SDS011;2227;47.810;8.810;2023-04-24T15:17:50;989.97;;;919.88;;
4428;SDS011;2227;47.810;8.810;2023-04-24T15:20:17;991.97;;;921.33;;
4428;SDS011;2227;47.810;8.810;2023-04-24T15:22:44;991.10;;;920.42;;
4428;SDS011;2227;47.810;8.810;2023-04-24T15:25:10;984.42;;;914.03;;
4428;SDS011;2227;47.810;8.810;2023-04-24T15:27:44;981.25;;;911.45;;
4428;SDS011;2227;47.810;8.810;2023-04-24T15:30:12;979.70;;;910.00;;
4428;SDS011;2227;47.810;8.810;2023-04-24T15:32:39;981.70;;;911.80;;
4428;SDS011;2227;47.810;8.810;2023-04-24T15:35:07;982.53;;;913.15;;
4428;SDS011;2227;47.810;8.810;2023-04-24T15:37:36;986.78;;;917.08;;
4428;SDS011;2227;47.810;8.810;2023-04-24T15:40:03;979.60;;;910.05;;
4428;SDS011;2227;47.810;8.810;2023-04-24T15:42:33;987.45;;;917.15;;
4428;SDS011;2227;47.810;8.810;2023-04-24T15:44:59;984.33;;;914.45;;
4428;SDS011;2227;47.810;8.810;2023-04-24T15:47:26;980.55;;;910.50;;
4428;SDS011;2227;47.810;8.810;2023-04-24T15:49:53;980.10;;;909.95;;
4428;SDS011;2227;47.810;8.810;2023-04-24T15:52:20;979.85;;;909.95;;
4428;SDS011;2227;47.810;8.810;2023-04-24T15:54:47;983.42;;;912.30;;
4428;SDS011;2227;47.810;8.810;2023-04-24T15:57:13;978.33;;;907.63;;
4428;SDS011;2227;47.810;8.810;2023-04-24T15:59:40;972.67;;;902.27;;
4428;SDS011;2227;47.810;8.810;2023-04-24T16:02:11;977.28;;;906.75;;
4428;SDS011;2227;47.810;8.810;2023-04-24T16:04:47;982.97;;;912.17;;
4428;SDS011;2227;47.810;8.810;2023-04-24T16:07:15;977.55;;;907.13;;
4428;SDS011;2227;47.810;8.810;2023-04-24T16:09:45;979.50;;;909.20;;
4428;SDS011;2227;47.810;8.810;2023-04-24T16:12:12;980.92;;;910.95;;
4428;SDS011;2227;47.810;8.810;2023-04-24T16:14:39;983.60;;;913.27;;
4428;SDS011;2227;47.810;8.810;2023-04-24T16:17:06;993.05;;;921.22;;
4428;SDS011;2227;47.810;8.810;2023-04-24T16:19:33;992.17;;;920.33;;
4428;SDS011;2227;47.810;8.810;2023-04-24T16:22:00;980.63;;;910.63;;
4428;SDS011;2227;47.810;8.810;2023-04-24T16:24:28;987.72;;;917.83;;
4428;SDS011;2227;47.810;8.810;2023-04-24T16:26:55;989.17;;;919.25;;
4428;SDS011;2227;47.810;8.810;2023-04-24T16:29:21;989.47;;;920.17;;
4428;SDS011;2227;47.810;8.810;2023-04-24T16:31:48;1000.80;;;930.88;;
4428;SDS011;2227;47.810;8.810;2023-04-24T16:34:15;999.35;;;929.65;;
4428;SDS011;2227;47.810;8.810;2023-04-24T16:36:42;994.47;;;924.97;;
4428;SDS011;2227;47.810;8.810;2023-04-24T16:39:09;999.80;;;929.92;;
4428;SDS011;2227;47.810;8.810;2023-04-24T16:41:35;998.05;;;928.80;;
4428;SDS011;2227;47.810;8.810;2023-04-24T16:44:02;1002.80;;;933.33;;
4428;SDS011;2227;47.810;8.810;2023-04-24T16:46:29;987.60;;;917.28;;
4428;SDS011;2227;47.810;8.810;2023-04-24T16:48:56;993.47;;;922.25;;
4428;SDS011;2227;47.810;8.810;2023-04-24T16:51:23;983.42;;;912.42;;
4428;SDS011;2227;47.810;8.810;2023-04-24T16:53:50;987.20;;;916.33;;
4428;SDS011;2227;47.810;8.810;2023-04-24T16:56:17;982.63;;;911.38;;
4428;SDS011;2227;47.810;8.810;2023-04-24T16:58:43;977.20;;;905.10;;
4428;SDS011;2227;47.810;8.810;2023-04-24T17:01:10;981.35;;;909.55;;
4428;SDS011;2227;47.810;8.810;2023-04-24T17:03:37;983.75;;;912.10;;
4428;SDS011;2227;47.810;8.810;2023-04-24T17:06:04;981.58;;;910.50;;
4428;SDS011;2227;47.810;8.810;2023-04-24T17:08:31;977.45;;;905.95;;
4428;SDS011;2227;47.810;8.810;2023-04-24T17:10:58;983.13;;;911.83;;
4428;SDS011;2227;47.810;8.810;2023-04-24T17:13:25;985.78;;;914.45;;
4428;SDS011;2227;47.810;8.810;2023-04-24T17:15:51;980.38;;;909.28;;
4428;SDS011;2227;47.810;8.810;2023-04-24T17:18:18;983.05;;;910.72;;
4428;SDS011;2227;47.810;8.810;2023-04-24T17:20:45;979.85;;;908.00;;
4428;SDS011;2227;47.810;8.810;2023-04-24T17:23:11;976.65;;;904.35;;
4428;SDS011;2227;47.810;8.810;2023-04-24T17:25:38;963.58;;;891.45;;
4428;SDS011;2227;47.810;8.810;2023-04-24T17:28:11;960.17;;;888.40;;
4428;SDS011;2227;47.810;8.810;2023-04-24T17:30:48;954.55;;;883.13;;
4428;SDS011;2227;47.810;8.810;2023-04-24T17:33:14;953.65;;;881.28;;
4428;SDS011;2227;47.810;8.810;2023-04-24T17:35:41;956.15;;;884.53;;
4428;SDS011;2227;47.810;8.810;2023-04-24T17:38:08;960.53;;;888.40;;
4428;SDS011;2227;47.810;8.810;2023-04-24T17:40:34;960.08;;;888.55;;
4428;SDS011;2227;47.810;8.810;2023-04-24T17:43:03;960.03;;;888.17;;
4428;SDS011;2227;47.810;8.810;2023-04-24T17:45:30;965.67;;;893.65;;
4428;SDS011;2227;47.810;8.810;2023-04-24T17:47:57;965.28;;;892.92;;
4428;SDS011;2227;47.810;8.810;2023-04-24T17:50:24;954.55;;;882.45;;
4428;SDS011;2227;47.810;8.810;2023-04-24T17:52:51;957.50;;;885.20;;
4428;SDS011;2227;47.810;8.810;2023-04-24T17:55:17;959.85;;;887.15;;
4428;SDS011;2227;47.810;8.810;2023-04-24T17:57:44;949.38;;;877.20;;
4428;SDS011;2227;47.810;8.810;2023-04-24T18:00:11;946.15;;;873.95;;
4428;SDS011;2227;47.810;8.810;2023-04-24T18:02:38;949.40;;;877.80;;
4428;SDS011;2227;47.810;8.810;2023-04-24T18:05:05;942.88;;;870.80;;
4428;SDS011;2227;47.810;8.810;2023-04-24T18:07:32;936.92;;;865.17;;
4428;SDS011;2227;47.810;8.810;2023-04-24T18:09:59;927.92;;;855.95;;
4428;SDS011;2227;47.810;8.810;2023-04-24T18:12:25;917.00;;;844.22;;
4428;SDS011;2227;47.810;8.810;2023-04-24T18:14:52;916.95;;;845.25;;
4428;SDS011;2227;47.810;8.810;2023-04-24T18:17:38;914.83;;;843.42;;